Time;durP1;ratioP1;P1;durP2;ratioP2;P2;SDS_P1;SDS_P2;PMS_P1;PMS_P2;Temp;Humidity;BMP_temperature;BMP_pressure;BME280_temperature;BME280_humidity;BME280_pressure;Samples;Min_cycle;Max_cycle;Signal;HPM_P1;HPM_P2
2022/12/12 00:01:38;;;;;;;4.25;2.58;;;;;;;-0.85;96.02;98439.34;1739661;81;21631;-73
2022/12/12 00:04:05;;;;;;;5.47;3.10;;;;;;;-0.82;95.94;98442.67;1744552;81;20971;-73
2022/12/12 00:06:32;;;;;;;5.83;3.25;;;;;;;-0.79;96.00;98442.61;1745997;80;20976;-73
2022/12/12 00:08:59;;;;;;;3.75;1.87;;;;;;;-0.75;95.96;98442.97;1748177;80;20976;-73
2022/12/12 00:11:26;;;;;;;3.83;2.65;;;;;;;-0.73;95.90;98445.06;1744626;80;20939;-73
2022/12/12 00:13:53;;;;;;;3.52;1.90;;;;;;;-0.74;95.82;98447.64;1749111;81;21068;-73
2022/12/12 00:16:20;;;;;;;6.92;2.60;;;;;;;-0.77;95.84;98443.42;1750105;81;21375;-73
2022/12/12 00:18:47;;;;;;;3.12;1.77;;;;;;;-0.76;95.73;98437.86;1752249;80;21089;-73
2022/12/12 00:21:18;;;;;;;3.43;2.33;;;;;;;-0.80;95.84;98439.66;1748322;80;20970;-73
2022/12/12 00:23:46;;;;;;;4.05;1.85;;;;;;;-0.80;95.92;98435.81;1745760;81;20978;-73
2022/12/12 00:26:27;;;;;;;5.45;2.50;;;;;;;-0.79;95.95;98431.52;1747574;81;21041;-73
2022/12/12 00:28:54;;;;;;;4.75;1.98;;;;;;;-0.83;96.07;98433.31;1748600;80;21116;-73
2022/12/12 00:31:21;;;;;;;3.47;2.05;;;;;;;-0.75;96.06;98433.99;1752812;81;21607;-72
2022/12/12 00:33:49;;;;;;;3.62;1.90;;;;;;;-0.71;96.08;98430.47;1752728;81;20960;-73
2022/12/12 00:36:21;;;;;;;2.40;1.60;;;;;;;-0.69;95.90;98431.28;1725185;81;21478;-73
2022/12/12 00:38:49;;;;;;;4.05;1.70;;;;;;;-0.66;95.93;98434.67;1754872;81;21069;-73
2022/12/12 00:41:16;;;;;;;3.10;1.80;;;;;;;-0.66;95.90;98435.50;1758340;79;20927;-73
2022/12/12 00:43:43;;;;;;;3.80;1.80;;;;;;;-0.70;96.00;98433.45;1752526;81;21057;-73
2022/12/12 00:46:16;;;;;;;4.17;1.30;;;;;;;-0.64;95.99;98435.45;1741819;81;21010;-73
2022/12/12 00:48:43;;;;;;;3.92;1.80;;;;;;;-0.63;95.76;98435.88;1752488;81;21002;-73
2022/12/12 00:51:18;;;;;;;2.67;1.60;;;;;;;-0.65;95.74;98441.47;1751711;81;20943;-73
2022/12/12 00:53:45;;;;;;;3.08;1.52;;;;;;;-0.68;95.62;98432.96;1745781;81;21034;-73
2022/12/12 00:56:15;;;;;;;4.15;2.15;;;;;;;-0.71;95.51;98438.16;1742461;81;20965;-73
2022/12/12 00:58:43;;;;;;;4.05;1.80;;;;;;;-0.73;95.70;98442.91;1737339;81;21049;-73
2022/12/12 01:01:14;;;;;;;2.83;1.90;;;;;;;-0.73;95.74;98439.94;1737045;81;21015;-73
2022/12/12 01:03:42;;;;;;;2.90;1.55;;;;;;;-0.76;95.86;98439.14;1738155;81;21001;-72
2022/12/12 01:06:09;;;;;;;;;;;;;;;-0.80;95.60;98440.94;1741342;81;21047;-73
2022/12/12 01:08:36;;;;;;;3.93;1.90;;;;;;;-0.92;95.43;98439.48;1736657;81;20415;-73
2022/12/12 01:11:05;;;;;;;4.05;1.67;;;;;;;-1.01;95.54;98434.57;1736775;81;21944;-73
2022/12/12 01:13:32;;;;;;;3.02;1.30;;;;;;;-1.05;95.63;98433.38;1740218;81;20954;-73
2022/12/12 01:15:58;;;;;;;3.33;1.95;;;;;;;-1.04;95.81;98435.05;1738113;81;21037;-73
2022/12/12 01:18:25;;;;;;;1.92;1.37;;;;;;;-1.00;95.99;98427.72;1738296;81;20963;-73
2022/12/12 01:20:52;;;;;;;4.00;1.90;;;;;;;-0.95;96.06;98427.19;1740537;81;21069;-73
2022/12/12 01:23:19;;;;;;;2.52;1.70;;;;;;;-0.91;95.97;98428.80;1741261;81;21106;-73
2022/12/12 01:25:45;;;;;;;3.17;2.43;;;;;;;-0.86;95.94;98421.86;1740083;81;21037;-73
2022/12/12 01:28:12;;;;;;;3.35;2.10;;;;;;;-0.83;95.92;98423.06;1741759;81;21034;-73
2022/12/12 01:30:39;;;;;;;2.65;1.52;;;;;;;-0.78;95.87;98426.82;1730816;82;21541;-72
2022/12/12 01:33:05;;;;;;;2.72;1.50;;;;;;;-0.76;95.80;98427.16;1745575;80;21075;-73
2022/12/12 01:35:33;;;;;;;2.37;1.80;;;;;;;-0.70;95.87;98423.62;1750775;80;21053;-73
2022/12/12 01:38:00;;;;;;;3.22;1.37;;;;;;;-0.72;95.71;98405.73;1747118;80;21055;-73
2022/12/12 01:40:30;;;;;;;5.78;1.82;;;;;;;-0.77;95.58;98408.83;1721151;83;20999;-73
2022/12/12 01:42:57;;;;;;;2.98;1.70;;;;;;;-0.79;95.64;98416.14;1731039;81;21110;-73
2022/12/12 01:46:01;;;;;;;4.53;2.22;;;;;;;-0.81;95.67;98417.89;1748652;80;21082;-73
2022/12/12 01:51:17;;;;;;;2.77;1.42;;;;;;;-0.84;95.39;98423.95;1701891;81;21197;-72
2022/12/12 01:53:46;;;;;;;3.72;1.77;;;;;;;-0.98;95.18;98425.95;1678245;84;21084;-73
2022/12/12 01:56:17;;;;;;;2.85;1.57;;;;;;;-1.08;95.42;98415.06;1679770;85;21071;-73
2022/12/12 01:58:48;;;;;;;3.45;1.77;;;;;;;-1.16;95.46;98412.66;1683181;83;21308;-73
2022/12/12 02:01:15;;;;;;;4.15;2.08;;;;;;;-1.23;95.43;98412.39;1686252;84;21041;-73
2022/12/12 02:03:43;;;;;;;2.55;1.45;;;;;;;-1.30;95.43;98415.95;1686033;82;21070;-73
2022/12/12 02:06:18;;;;;;;3.47;1.42;;;;;;;-1.35;95.54;98412.62;1693516;84;20987;-73
2022/12/12 02:08:46;;;;;;;3.08;1.72;;;;;;;-1.37;95.52;98410.56;1694855;84;21191;-73
2022/12/12 02:11:13;;;;;;;2.00;1.45;;;;;;;-1.42;95.46;98408.08;1695781;84;21431;-74
2022/12/12 02:13:40;;;;;;;2.62;1.60;;;;;;;-1.45;95.35;98402.19;1690858;84;21030;-73
2022/12/12 02:16:12;;;;;;;2.33;1.35;;;;;;;-1.48;95.33;98399.69;1691709;84;21069;-73
2022/12/12 02:18:50;;;;;;;2.05;1.47;;;;;;;-1.52;95.37;98400.61;1689482;84;21533;-73
2022/12/12 02:21:22;;;;;;;;;;;;;;;-1.61;95.45;98383.27;1691562;84;21070;-73
2022/12/12 02:24:12;;;;;;;3.15;1.30;;;;;;;-1.63;95.47;98383.73;1685734;84;20156;-73
2022/12/12 02:27:13;;;;;;;5.40;1.87;;;;;;;-1.63;95.42;98378.61;1682248;84;21052;-73
2022/12/12 02:30:01;;;;;;;3.17;1.40;;;;;;;-1.64;95.39;98376.09;1709580;82;21029;-73
2022/12/12 02:32:42;;;;;;;2.60;1.45;;;;;;;-1.63;95.49;98365.81;1698416;82;21062;-73
2022/12/12 02:35:20;;;;;;;3.33;1.50;;;;;;;-1.59;95.45;98362.34;1629123;87;21607;-73
2022/12/12 02:38:23;;;;;;;3.50;2.83;;;;;;;-1.51;95.48;98372.84;1626929;87;21049;-73
2022/12/12 02:41:07;;;;;;;2.87;1.65;;;;;;;-1.43;95.38;98370.97;1592004;87;21963;-73
2022/12/12 02:44:00;;;;;;;2.75;1.40;;;;;;;-1.37;95.37;98370.87;1597783;88;21002;-73
2022/12/12 02:46:49;;;;;;;2.65;1.27;;;;;;;-1.29;95.42;98371.97;1610645;86;21072;-73
2022/12/12 02:49:27;;;;;;;1.85;1.32;;;;;;;-1.25;95.33;98362.08;1581208;90;21662;-73
2022/12/12 02:51:56;;;;;;;2.35;1.50;;;;;;;-1.23;95.33;98362.45;1574305;89;21038;-73
2022/12/12 02:54:24;;;;;;;2.45;1.60;;;;;;;-1.23;95.20;98366.30;1586103;88;21046;-73
2022/12/12 02:56:57;;;;;;;3.17;1.70;;;;;;;-1.22;95.28;98366.69;1587114;88;21082;-73
2022/12/12 02:59:31;;;;;;;1.92;1.37;;;;;;;-1.19;95.26;98370.47;1590998;89;21015;-73
2022/12/12 03:02:23;;;;;;;2.72;1.20;;;;;;;-1.14;95.26;98364.81;1586256;88;21023;-73
2022/12/12 03:08:36;;;;;;;4.30;2.05;;;;;;;-1.09;95.17;98357.03;1587746;88;21006;-73
2022/12/12 03:11:14;;;;;;;2.10;1.67;;;;;;;-1.08;95.23;98356.59;1585935;88;21035;-73
2022/12/12 03:13:57;;;;;;;5.85;2.70;;;;;;;-1.05;95.31;98360.36;1683472;83;21646;-73
2022/12/12 03:16:43;;;;;;;5.00;2.77;;;;;;;-1.04;95.23;98359.47;1681225;84;21086;-73
2022/12/12 03:19:29;;;;;;;5.60;2.63;;;;;;;-1.06;95.20;98356.13;1667736;84;21041;-72
2022/12/12 03:22:15;;;;;;;4.42;2.65;;;;;;;-1.05;95.14;98355.23;1683560;84;21029;-73
2022/12/12 03:25:02;;;;;;;4.40;2.87;;;;;;;-1.03;95.24;98353.49;1683064;84;21076;-73
2022/12/12 03:27:58;;;;;;;4.95;2.70;;;;;;;-1.00;95.28;98354.26;1703711;83;21586;-73
2022/12/12 03:30:28;;;;;;;6.17;2.35;;;;;;;-0.95;95.29;98354.16;1688242;84;21048;-73
2022/12/12 03:33:12;;;;;;;1.87;1.17;;;;;;;-0.94;95.24;98361.80;1687092;82;21083;-73
2022/12/12 03:36:12;;;;;;;4.62;2.20;;;;;;;-0.95;95.30;98356.73;1704740;82;21093;-73
2022/12/12 03:38:46;;;;;;;2.95;2.10;;;;;;;-1.00;95.35;98354.26;1698096;81;21440;-73
2022/12/12 03:41:18;;;;;;;2.85;1.67;;;;;;;-1.00;95.38;98347.02;1675182;83;21032;-73
2022/12/12 03:43:53;;;;;;;3.27;1.95;;;;;;;-0.97;95.33;98341.82;1683477;84;21042;-73
2022/12/12 03:47:07;;;;;;;3.55;2.12;;;;;;;-0.97;95.34;98343.94;1692557;84;21345;-73
2022/12/12 03:49:50;;;;;;;4.42;1.70;;;;;;;-0.99;95.25;98335.44;1586017;90;21163;-73
2022/12/12 03:52:24;;;;;;;3.50;1.75;;;;;;;-0.96;95.34;98334.52;1543414;91;21729;-73
2022/12/12 03:54:57;;;;;;;3.12;2.00;;;;;;;-0.96;95.37;98342.21;1589363;88;21560;-73
2022/12/12 03:57:31;;;;;;;2.77;1.80;;;;;;;-0.96;95.32;98330.68;1588870;88;21020;-73
2022/12/12 04:00:13;;;;;;;4.12;1.70;;;;;;;-0.96;95.37;98325.55;1589692;88;21105;-72
2022/12/12 04:03:08;;;;;;;1.92;1.40;;;;;;;-0.96;95.47;98338.37;1589727;88;21654;-73
2022/12/12 04:14:42;;;;;;;4.33;1.87;;;;;;;-0.86;95.52;98338.57;1588679;88;21408;-73
2022/12/12 04:17:13;;;;;;;5.08;2.00;;;;;;;-0.88;95.68;98331.34;1590875;88;21082;-73
2022/12/12 04:28:33;;;;;;;4.70;2.22;;;;;;;-0.83;95.56;98317.16;1643791;86;21102;-73
2022/12/12 04:31:06;;;;;;;3.05;1.57;;;;;;;-0.83;95.62;98325.68;1648643;85;21588;-73
2022/12/12 04:33:44;;;;;;;3.02;1.72;;;;;;;-0.85;95.59;98319.74;1647549;86;21027;-73
2022/12/12 04:36:13;;;;;;;2.92;1.30;;;;;;;-0.84;95.51;98324.01;1657641;84;20992;-73
2022/12/12 04:38:43;;;;;;;1.82;1.60;;;;;;;-0.89;95.41;98328.39;1653652;85;21032;-73
2022/12/12 04:41:12;;;;;;;3.08;1.45;;;;;;;-0.87;95.44;98327.90;1657065;85;21683;-73
2022/12/12 04:43:42;;;;;;;5.17;1.60;;;;;;;-0.90;95.46;98321.56;1655258;85;21005;-73
2022/12/12 04:46:19;;;;;;;6.08;2.00;;;;;;;-0.92;95.22;98315.66;1632498;86;21783;-73
2022/12/12 04:48:55;;;;;;;;;;;;;;;-0.96;95.16;98319.16;1635551;86;21504;-73
2022/12/12 04:51:35;;;;;;;5.58;1.98;;;;;;;-1.05;94.99;98327.06;1668180;84;20485;-73
2022/12/12 04:54:10;;;;;;;3.12;1.87;;;;;;;-1.13;94.96;98320.38;1667989;84;20972;-73
2022/12/12 04:56:39;;;;;;;2.98;1.50;;;;;;;-1.18;94.91;98323.47;1668174;85;21669;-73
2022/12/12 04:59:07;;;;;;;2.98;1.60;;;;;;;-1.18;95.14;98317.07;1638252;86;21025;-73
2022/12/12 05:02:19;;;;;;;2.95;1.70;;;;;;;-1.13;95.26;98316.53;1661523;84;20960;-73
2022/12/12 05:05:02;;;;;;;2.40;1.37;;;;;;;-1.07;95.25;98321.12;1646941;84;21025;-73
2022/12/12 05:07:33;;;;;;;1.87;1.30;;;;;;;-1.05;95.28;98314.25;1675422;84;21002;-73
2022/12/12 05:10:00;;;;;;;3.55;1.55;;;;;;;-1.02;95.19;98314.17;1681771;83;21056;-73
2022/12/12 05:12:27;;;;;;;3.53;1.50;;;;;;;-1.02;95.17;98309.89;1676027;84;21109;-73
2022/12/12 05:14:53;;;;;;;5.37;1.82;;;;;;;-0.98;95.19;98310.65;1674817;84;20983;-73
2022/12/12 05:17:25;;;;;;;2.62;1.67;;;;;;;-0.99;95.24;98296.17;1691226;83;21085;-73
2022/12/12 05:19:51;;;;;;;4.70;1.92;;;;;;;-0.92;95.28;98297.72;1681764;82;20987;-73
2022/12/12 05:22:18;;;;;;;4.03;2.02;;;;;;;-0.89;94.85;98301.48;1693575;83;21553;-73
2022/12/12 05:24:45;;;;;;;6.25;2.72;;;;;;;-0.85;94.99;98296.67;1684596;82;21537;-73
2022/12/12 05:27:11;;;;;;;5.45;2.55;;;;;;;-0.85;94.92;98288.99;1686652;82;21046;-73
2022/12/12 05:29:38;;;;;;;4.60;1.90;;;;;;;-0.83;94.80;98292.37;1689673;82;21049;-73
2022/12/12 05:32:05;;;;;;;7.17;2.10;;;;;;;-0.81;94.67;98281.65;1692659;84;21105;-73
2022/12/12 05:34:31;;;;;;;3.40;1.35;;;;;;;-0.75;94.87;98286.62;1689492;82;21003;-73
2022/12/12 05:36:59;;;;;;;2.22;1.75;;;;;;;-0.71;94.76;98286.93;1688029;84;21102;-73
2022/12/12 05:39:26;;;;;;;3.12;1.40;;;;;;;-0.68;94.37;98297.11;1692048;82;21039;-73
2022/12/12 05:41:52;;;;;;;2.72;1.92;;;;;;;-0.63;94.49;98285.91;1685301;83;21054;-73
2022/12/12 05:44:19;;;;;;;4.80;1.85;;;;;;;-0.58;94.53;98280.23;1685594;84;21508;-73
2022/12/12 05:46:46;;;;;;;4.22;2.00;;;;;;;-0.55;94.56;98282.27;1690747;82;21552;-73
2022/12/12 05:49:12;;;;;;;3.77;2.10;;;;;;;-0.53;93.95;98279.68;1691099;82;20979;-73
2022/12/12 05:51:39;;;;;;;5.03;1.77;;;;;;;-0.50;93.98;98280.88;1683966;84;21020;-73
2022/12/12 05:54:05;;;;;;;2.33;1.85;;;;;;;-0.49;94.16;98278.70;1693723;82;20975;-73
2022/12/12 05:56:32;;;;;;;3.30;1.60;;;;;;;-0.47;94.40;98280.80;1694773;82;21099;-73
2022/12/12 05:58:58;;;;;;;3.02;1.90;;;;;;;-0.45;94.50;98280.30;1686789;84;20987;-73
2022/12/12 06:01:25;;;;;;;3.27;1.82;;;;;;;-0.44;94.59;98287.58;1690474;82;21173;-73
2022/12/12 06:03:51;;;;;;;2.80;1.67;;;;;;;-0.40;94.86;98288.72;1689154;83;21038;-73
2022/12/12 06:06:18;;;;;;;2.62;1.57;;;;;;;-0.36;94.88;98303.16;1689433;82;21144;-73
2022/12/12 06:08:45;;;;;;;6.00;2.80;;;;;;;-0.37;94.97;98295.05;1691864;84;21033;-73
2022/12/12 06:11:11;;;;;;;4.90;2.00;;;;;;;-0.52;99.40;98294.17;1692406;82;21355;-73
2022/12/12 06:13:38;;;;;;;3.85;2.20;;;;;;;-0.66;100.00;98295.80;1690319;82;21200;-73
2022/12/12 06:16:12;;;;;;;3.75;2.15;;;;;;;-0.75;100.00;98293.02;1688984;84;21015;-73
2022/12/12 06:18:38;;;;;;;2.77;1.32;;;;;;;-0.77;100.00;98289.65;1689302;82;21429;-73
2022/12/12 06:21:09;;;;;;;3.52;1.92;;;;;;;-0.78;100.00;98299.52;1685559;84;21074;-73
2022/12/12 06:23:39;;;;;;;3.77;2.08;;;;;;;-0.79;99.76;98302.93;1687578;84;21052;-73
2022/12/12 06:26:07;;;;;;;4.33;2.00;;;;;;;-0.82;99.30;98290.20;1682683;82;20975;-73
2022/12/12 06:28:35;;;;;;;3.50;2.40;;;;;;;-0.82;99.09;98299.16;1683918;83;21528;-73
2022/12/12 06:31:02;;;;;;;;;;;;;;;-0.84;99.00;98285.57;1690452;84;21481;-73
2022/12/12 06:33:31;;;;;;;3.00;1.98;;;;;;;-0.94;99.28;98291.78;1682299;84;20109;-74
2022/12/12 06:36:01;;;;;;;3.17;2.05;;;;;;;-1.00;99.18;98296.61;1694865;82;21060;-73
2022/12/12 06:38:29;;;;;;;4.90;2.45;;;;;;;-1.04;99.02;98291.59;1692009;82;21082;-73
2022/12/12 06:40:56;;;;;;;5.85;2.30;;;;;;;-1.07;99.08;98291.66;1692568;82;21022;-73
2022/12/12 06:43:23;;;;;;;2.45;1.90;;;;;;;-1.14;98.82;98286.69;1689195;83;21010;-73
2022/12/12 06:45:50;;;;;;;;;;;;;;;-1.21;98.75;98294.09;1689206;82;21109;-73
2022/12/12 06:48:17;;;;;;;3.08;2.08;;;;;;;-1.28;98.45;98299.41;1684445;82;20093;-73
2022/12/12 06:50:45;;;;;;;2.92;2.15;;;;;;;-1.37;98.81;98297.90;1683354;82;21027;-74
2022/12/12 06:53:13;;;;;;;3.10;1.80;;;;;;;-1.41;98.73;98292.42;1681605;83;21037;-73
2022/12/12 06:55:43;;;;;;;4.15;2.62;;;;;;;-1.47;98.76;98293.40;1681897;84;20980;-73
2022/12/12 06:58:10;;;;;;;7.25;3.08;;;;;;;-1.51;98.61;98292.20;1683044;83;21466;-73
2022/12/12 07:00:38;;;;;;;5.72;2.55;;;;;;;-1.48;99.28;98286.61;1680440;84;21545;-73
2022/12/12 07:03:20;;;;;;;5.15;2.70;;;;;;;-1.41;99.51;98283.46;1682680;84;21018;-73
2022/12/12 07:05:48;;;;;;;7.20;2.83;;;;;;;-1.31;99.24;98292.63;1680950;83;21014;-73
2022/12/12 07:08:15;;;;;;;2.92;1.75;;;;;;;-1.24;99.41;98294.16;1691173;83;21593;-73
2022/12/12 07:10:43;;;;;;;3.90;2.30;;;;;;;-1.16;99.22;98288.43;1686285;83;21614;-73
2022/12/12 07:13:10;;;;;;;4.97;2.10;;;;;;;-1.12;99.16;98286.66;1680397;84;21020;-74
2022/12/12 07:15:49;;;;;;;3.08;2.17;;;;;;;-1.09;99.20;98285.31;1682639;84;20979;-75
2022/12/12 07:18:17;;;;;;;3.30;2.02;;;;;;;-1.02;99.32;98291.12;1687441;84;20999;-74
2022/12/12 07:20:46;;;;;;;4.75;2.17;;;;;;;-0.99;99.37;98280.80;1682488;84;20988;-74
2022/12/12 07:23:13;;;;;;;5.15;2.40;;;;;;;-0.95;99.19;98279.86;1683056;84;20997;-74
2022/12/12 07:25:43;;;;;;;5.00;3.15;;;;;;;-0.89;99.25;98288.68;1689854;82;21134;-74
2022/12/12 07:28:12;;;;;;;4.55;2.87;;;;;;;-0.86;99.12;98286.48;1684205;84;21593;-74
2022/12/12 07:30:45;;;;;;;5.12;2.95;;;;;;;-0.82;99.01;98276.55;1682978;83;21095;-74
2022/12/12 07:33:15;;;;;;;5.40;2.90;;;;;;;-0.80;98.97;98280.75;1685690;84;20990;-74
2022/12/12 07:35:42;;;;;;;7.87;3.80;;;;;;;-0.78;98.92;98282.85;1682272;83;21108;-75
2022/12/12 07:38:11;;;;;;;6.40;3.40;;;;;;;-0.75;98.88;98281.48;1683607;84;21058;-74
2022/12/12 07:40:38;;;;;;;6.03;3.12;;;;;;;-0.72;98.91;98271.16;1682533;83;21623;-74
2022/12/12 07:43:06;;;;;;;6.08;3.37;;;;;;;-0.68;98.87;98268.91;1685424;84;20984;-74
2022/12/12 07:45:33;;;;;;;4.17;2.40;;;;;;;-0.65;98.84;98267.16;1681838;84;21024;-74
2022/12/12 07:47:59;;;;;;;5.90;2.33;;;;;;;-0.62;98.88;98267.08;1684684;84;22267;-74
2022/12/12 07:50:26;;;;;;;4.17;2.15;;;;;;;-0.58;98.86;98267.41;1683631;84;21080;-74
2022/12/12 07:52:52;;;;;;;3.08;1.80;;;;;;;-0.56;98.78;98264.34;1669969;84;21048;-74
2022/12/12 07:55:19;;;;;;;2.27;1.63;;;;;;;-0.52;98.75;98258.28;1665365;84;20935;-74
2022/12/12 07:57:46;;;;;;;4.75;2.05;;;;;;;-0.49;98.72;98255.19;1665133;84;20996;-74
2022/12/12 08:00:16;;;;;;;2.27;1.77;;;;;;;-0.47;98.62;98261.57;1662009;84;20989;-74
2022/12/12 08:02:42;;;;;;;3.27;2.02;;;;;;;-0.45;98.69;98255.94;1661723;84;21050;-74
2022/12/12 08:05:09;;;;;;;3.40;1.60;;;;;;;-0.44;98.55;98258.92;1661910;84;20933;-74
2022/12/12 08:07:36;;;;;;;2.70;1.75;;;;;;;-0.43;98.42;98249.05;1660585;84;21059;-74
2022/12/12 08:10:04;;;;;;;4.72;2.22;;;;;;;-0.40;98.28;98260.51;1663133;84;21112;-74
2022/12/12 08:12:34;;;;;;;4.37;2.62;;;;;;;-0.39;98.11;98253.23;1661246;84;21586;-74
2022/12/12 08:15:01;;;;;;;8.65;4.33;;;;;;;-0.34;98.04;98260.34;1660904;83;21013;-74
2022/12/12 08:17:27;;;;;;;5.42;3.37;;;;;;;-0.30;97.80;98251.70;1659043;84;21012;-74
2022/12/12 08:19:54;;;;;;;6.50;3.00;;;;;;;-0.30;97.67;98251.70;1658383;84;21092;-74
2022/12/12 08:22:21;;;;;;;5.15;3.47;;;;;;;-0.29;97.60;98245.67;1660633;84;21329;-74
2022/12/12 08:24:50;;;;;;;2.47;1.90;;;;;;;-0.25;97.60;98247.29;1661561;84;21116;-74
2022/12/12 08:27:17;;;;;;;3.17;2.12;;;;;;;-0.23;97.35;98239.53;1679341;84;21220;-74
2022/12/12 08:29:43;;;;;;;2.25;2.02;;;;;;;-0.15;97.48;98247.03;1662444;84;21067;-75
2022/12/12 08:32:10;;;;;;;5.62;2.70;;;;;;;-0.07;97.37;98248.94;1665873;84;21058;-74
2022/12/12 08:34:37;;;;;;;4.22;2.80;;;;;;;-0.08;97.01;98248.55;1657095;85;20991;-74
2022/12/12 08:37:04;;;;;;;5.92;3.75;;;;;;;-0.02;97.29;98252.23;1670392;84;21112;-74
2022/12/12 08:39:31;;;;;;;6.65;4.17;;;;;;;0.03;97.10;98254.64;1636491;85;21013;-74
2022/12/12 08:41:59;;;;;;;7.67;4.47;;;;;;;0.05;97.24;98262.70;1663870;84;21542;-73
2022/12/12 08:44:25;;;;;;;4.62;3.52;;;;;;;0.05;97.31;98260.13;1660561;84;21158;-74
2022/12/12 08:46:52;;;;;;;4.17;2.93;;;;;;;0.06;97.37;98266.97;1677264;84;21026;-74
2022/12/12 08:49:19;;;;;;;5.73;2.83;;;;;;;0.06;97.65;98257.98;1672081;84;21062;-74
2022/12/12 08:51:46;;;;;;;4.12;2.60;;;;;;;0.07;97.89;98259.66;1680490;84;21068;-74
2022/12/12 08:54:13;;;;;;;3.15;2.60;;;;;;;0.09;97.98;98264.31;1708415;83;21100;-74
2022/12/12 08:56:40;;;;;;;3.22;2.25;;;;;;;0.08;98.10;98267.75;1704604;83;21069;-74
2022/12/12 08:59:06;;;;;;;5.22;2.85;;;;;;;0.07;98.08;98266.08;1678533;84;21024;-73
2022/12/12 09:01:34;;;;;;;4.72;3.17;;;;;;;0.02;98.20;98264.08;1708479;83;21062;-74
2022/12/12 09:04:02;;;;;;;4.40;2.85;;;;;;;-0.02;98.68;98258.64;1704351;83;21058;-73
2022/12/12 09:06:29;;;;;;;4.00;2.70;;;;;;;-0.03;98.85;98265.50;1711281;83;21586;-74
2022/12/12 09:08:57;;;;;;;5.00;3.00;;;;;;;-0.02;98.97;98267.62;1710769;83;21622;-74
2022/12/12 09:11:24;;;;;;;6.12;2.58;;;;;;;-0.02;98.99;98276.60;1704774;83;21517;-74
2022/12/12 09:13:51;;;;;;;4.97;3.00;;;;;;;-0.04;99.19;98274.06;1709064;83;22244;-74
2022/12/12 09:16:18;;;;;;;4.35;2.70;;;;;;;-0.11;99.54;98276.83;1705902;83;21578;-74
2022/12/12 09:18:45;;;;;;;4.78;2.90;;;;;;;-0.18;99.67;98268.92;1704680;83;21127;-74
2022/12/12 09:21:12;;;;;;;4.42;2.62;;;;;;;-0.14;99.83;98270.09;1705331;83;21038;-74
2022/12/12 09:23:38;;;;;;;5.85;3.42;;;;;;;-0.06;99.67;98267.29;1717158;83;21068;-74
2022/12/12 09:26:06;;;;;;;4.78;3.22;;;;;;;0.05;99.40;98270.40;1717743;83;21020;-74
2022/12/12 09:28:33;;;;;;;5.03;3.58;;;;;;;0.04;99.23;98261.03;1719199;82;21032;-74
2022/12/12 09:31:03;;;;;;;5.85;3.77;;;;;;;-0.04;99.47;98260.40;1719972;82;21020;-74
2022/12/12 09:33:30;;;;;;;5.20;3.98;;;;;;;-0.01;99.76;98265.45;1704972;83;21618;-73
2022/12/12 09:36:01;;;;;;;6.62;4.20;;;;;;;0.11;99.85;98262.97;1707827;83;20973;-74
2022/12/12 09:38:28;;;;;;;4.92;3.42;;;;;;;0.24;99.99;98262.19;1679702;83;21034;-74
2022/12/12 09:41:14;;;;;;;6.55;4.03;;;;;;;0.28;100.00;98263.77;1708220;83;21072;-75
2022/12/12 09:44:11;;;;;;;7.58;4.28;;;;;;;0.37;100.00;98255.82;1648398;86;21061;-75
2022/12/12 09:46:46;;;;;;;5.53;3.58;;;;;;;0.50;100.00;98258.84;1644427;85;21074;-75
2022/12/12 09:49:21;;;;;;;5.87;4.00;;;;;;;0.56;99.77;98259.52;1643641;86;21043;-75
2022/12/12 09:51:51;;;;;;;5.22;3.83;;;;;;;0.58;99.62;98252.59;1663704;84;21094;-75
2022/12/12 09:54:22;;;;;;;7.92;3.70;;;;;;;0.62;99.42;98261.90;1702359;83;21024;-75
2022/12/12 09:57:27;;;;;;;4.45;3.50;;;;;;;0.60;99.37;98263.66;1700197;83;21494;-75
2022/12/12 10:00:08;;;;;;;6.53;3.37;;;;;;;0.61;99.45;98257.63;1692873;83;21595;-75
2022/12/12 10:03:13;;;;;;;6.40;4.03;;;;;;;0.64;99.51;98260.13;1689278;83;20981;-74
2022/12/12 10:06:04;;;;;;;5.58;4.17;;;;;;;0.74;99.56;98253.42;1691796;82;21021;-74
2022/12/12 10:08:42;;;;;;;4.85;3.52;;;;;;;0.74;99.24;98260.67;1693606;82;21075;-74
2022/12/12 10:14:05;;;;;;;6.37;4.00;;;;;;;0.85;98.85;98263.75;1689334;82;21033;-74
2022/12/12 10:16:32;;;;;;;7.08;3.95;;;;;;;0.70;98.61;98268.52;1690947;82;21038;-74
2022/12/12 10:19:08;;;;;;;5.10;3.87;;;;;;;0.52;99.14;98255.34;1684846;82;21075;-74
2022/12/12 10:21:39;;;;;;;5.08;3.70;;;;;;;0.31;99.54;98258.55;1688290;83;21638;-75
2022/12/12 10:24:14;;;;;;;5.80;3.80;;;;;;;0.19;100.00;98252.88;1690774;82;21046;-75
2022/12/12 10:26:44;;;;;;;6.08;3.72;;;;;;;0.16;100.00;98254.70;1628877;86;21026;-75
2022/12/12 10:29:24;;;;;;;6.70;3.80;;;;;;;0.16;100.00;98255.54;1629655;85;21555;-75
2022/12/12 10:32:05;;;;;;;5.83;3.60;;;;;;;0.19;100.00;98263.14;1622229;85;21568;-75
2022/12/12 10:34:40;;;;;;;5.25;3.52;;;;;;;0.34;100.00;98253.34;1635652;86;22321;-75
2022/12/12 10:37:21;;;;;;;4.25;3.08;;;;;;;0.48;100.00;98251.20;1635789;86;21068;-75
2022/12/12 10:40:05;;;;;;;6.30;3.17;;;;;;;0.62;100.00;98252.91;1640568;84;21050;-75
2022/12/12 10:42:39;;;;;;;6.12;3.50;;;;;;;0.70;100.00;98246.67;1618370;87;21072;-75
2022/12/12 10:45:45;;;;;;;4.85;3.00;;;;;;;0.77;100.00;98250.75;1602791;87;21069;-75
2022/12/12 10:48:14;;;;;;;5.25;3.30;;;;;;;0.80;99.98;98242.95;1609300;87;21507;-75
2022/12/12 10:50:49;;;;;;;4.97;3.67;;;;;;;0.78;99.51;98238.29;1605037;87;21112;-75
2022/12/12 10:53:16;;;;;;;6.60;3.87;;;;;;;0.78;99.54;98242.14;1609978;87;21131;-75
2022/12/12 10:55:54;;;;;;;5.45;4.12;;;;;;;0.81;99.62;98234.34;1591283;89;21083;-75
2022/12/12 10:58:28;;;;;;;7.03;4.42;;;;;;;0.93;99.82;98233.97;1590295;89;21076;-75
2022/12/12 11:01:04;;;;;;;6.05;3.98;;;;;;;1.01;99.63;98224.70;1583593;89;21002;-75
2022/12/12 11:03:48;;;;;;;5.60;4.20;;;;;;;1.19;99.51;98228.41;1602039;86;21049;-75
2022/12/12 11:06:36;;;;;;;6.72;3.62;;;;;;;1.30;99.26;98232.30;1566753;90;21118;-74
2022/12/12 11:09:16;;;;;;;4.87;2.92;;;;;;;1.37;99.15;98238.06;1602275;88;21086;-75
2022/12/12 11:12:03;;;;;;;4.28;2.87;;;;;;;1.32;98.86;98254.13;1575518;90;21072;-75
2022/12/12 11:14:41;;;;;;;4.73;3.10;;;;;;;1.14;98.56;98233.70;1605249;88;21072;-75
2022/12/12 11:17:27;;;;;;;5.75;2.67;;;;;;;1.06;98.96;98226.23;1602979;88;21046;-75
2022/12/12 11:19:58;;;;;;;4.97;2.55;;;;;;;1.01;98.81;98225.56;1624758;85;20956;-74
2022/12/12 11:22:26;;;;;;;5.90;3.40;;;;;;;1.13;99.01;98223.48;1697451;83;21055;-74
2022/12/12 11:24:54;;;;;;;4.37;3.00;;;;;;;1.14;98.48;98216.16;1694302;83;21088;-75
2022/12/12 11:27:29;;;;;;;;;;;;;;;1.10;98.40;98217.55;1701748;83;21478;-75
2022/12/12 11:30:25;;;;;;;5.87;3.20;;;;;;;1.05;99.06;98210.87;1697896;83;20146;-75
2022/12/12 11:32:56;;;;;;;4.93;4.03;;;;;;;1.11;99.02;98210.22;1697453;83;20992;-74
2022/12/12 11:35:29;;;;;;;7.15;3.92;;;;;;;1.27;98.92;98212.28;1697535;83;21497;-74
2022/12/12 11:38:04;;;;;;;7.55;4.00;;;;;;;1.28;98.37;98217.81;1694811;83;21056;-74
2022/12/12 11:40:37;;;;;;;5.95;4.10;;;;;;;1.32;98.15;98216.84;1678061;84;21137;-74
2022/12/12 11:43:35;;;;;;;7.90;4.70;;;;;;;1.32;98.53;98224.55;1695051;83;21436;-74
2022/12/12 11:46:19;;;;;;;7.53;4.28;;;;;;;1.36;98.61;98226.11;1689989;83;21145;-74
2022/12/12 11:49:01;;;;;;;12.33;4.87;;;;;;;1.40;98.57;98214.84;1689642;84;21502;-73
2022/12/12 11:51:39;;;;;;;8.03;4.78;;;;;;;1.49;98.23;98214.52;1679761;84;21018;-74
2022/12/12 11:54:21;;;;;;;9.13;4.67;;;;;;;1.48;97.96;98215.39;1677370;83;21030;-74
2022/12/12 11:57:09;;;;;;;7.72;4.75;;;;;;;1.40;97.34;98223.84;1672456;83;21544;-75
2022/12/12 11:59:56;;;;;;;5.10;2.77;;;;;;;1.39;97.84;98226.00;1695132;83;21047;-74
2022/12/12 12:03:06;;;;;;;5.12;2.08;;;;;;;1.27;95.89;98218.72;1681614;84;20974;-74
2022/12/12 12:06:12;;;;;;;6.30;2.50;;;;;;;1.05;96.74;98215.56;1672867;84;20970;-74
2022/12/12 12:08:56;;;;;;;4.03;2.10;;;;;;;1.05;97.22;98205.73;1672426;84;21065;-74
2022/12/12 12:11:52;;;;;;;5.40;1.98;;;;;;;1.08;96.96;98209.03;1677093;84;21069;-75
2022/12/12 12:14:39;;;;;;;3.63;1.83;;;;;;;1.01;97.49;98215.28;1664568;84;21161;-75
2022/12/12 12:17:34;;;;;;;3.37;1.70;;;;;;;1.03;97.46;98212.20;1665768;84;21017;-74
2022/12/12 12:20:31;;;;;;;6.50;1.77;;;;;;;1.00;97.27;98211.02;1672408;84;21093;-74
2022/12/12 12:23:42;;;;;;;6.30;1.98;;;;;;;0.93;97.39;98204.41;1704821;82;21079;-74
2022/12/12 12:26:26;;;;;;;4.17;2.30;;;;;;;0.99;97.03;98204.20;1702841;82;20985;-74
2022/12/12 12:29:35;;;;;;;6.83;2.40;;;;;;;1.06;97.29;98190.24;1700136;83;21029;-74
2022/12/12 12:32:23;;;;;;;3.15;1.62;;;;;;;1.17;95.44;98199.34;1700044;83;21037;-74
2022/12/12 12:35:25;;;;;;;2.83;1.87;;;;;;;1.45;97.13;98202.64;1687047;84;21092;-74